Wastella, Texas
Current Conditions -  °F | °C
As of 5:15 AM on Tuesday 21 Oct 2014 (Local Time) from KSWW Reporting Station
Clear Clear  
Wind Chill: 59°   Ceiling: Unl
Heat Index: 59°   Visibility: 10mi
Dew Point: 54°   Wind: 8mph
Humidity: 83%   Direction: 180°S
Pressure: 30.11"   Gusts: NA
Location:  32.3875°N, 100.536°W
Report Text: KSWW 211015Z AUTO 18007KT 10SM CLR 15/12 A3011 RMK AO2 T01510122
Loading
Personal Weather Stations






























Interactive Weather Map
Tropical Storm Tracking
New forecast layout! Learn more

10-Day Weather Forecast

Advertisements
Track Severe Weather on mobile